sensor_id;sensor_type;location;lat;lon;timestamp;noise_LAeq;noise_LA_min;noise_LA_max;noise_LA01;noise_LA95
67308;Laerm;57662;51.436;5.978;2023-07-31T00:00:00;44.91;42.26;51.93;;
67308;Laerm;57662;51.436;5.978;2023-07-31T00:00:10;47.95;44.81;54.38;;
67308;Laerm;57662;51.436;5.978;2023-07-31T00:00:21;47.73;45.44;54.87;;
67308;Laerm;57662;51.436;5.978;2023-07-31T00:00:31;51.16;44.30;67.57;;
67308;Laerm;57662;51.436;5.978;2023-07-31T00:00:41;52.52;43.47;67.30;;
67308;Laerm;57662;51.436;5.978;2023-07-31T00:00:52;46.36;43.38;56.40;;
67308;Laerm;57662;51.436;5.978;2023-07-31T00:01:02;47.39;42.85;58.64;;
67308;Laerm;57662;51.436;5.978;2023-07-31T00:01:12;44.26;42.58;47.98;;
67308;Laerm;57662;51.436;5.978;2023-07-31T00:01:23;50.33;42.08;64.55;;
67308;Laerm;57662;51.436;5.978;2023-07-31T00:01:33;44.32;41.99;53.39;;
67308;Laerm;57662;51.436;5.978;2023-07-31T00:01:43;48.44;43.98;59.81;;
67308;Laerm;57662;51.436;5.978;2023-07-31T00:01:53;44.21;42.55;47.92;;
67308;Laerm;57662;51.436;5.978;2023-07-31T00:02:04;45.71;42.96;50.00;;
67308;Laerm;57662;51.436;5.978;2023-07-31T00:02:14;45.81;43.81;50.06;;
67308;Laerm;57662;51.436;5.978;2023-07-31T00:02:24;44.30;41.98;49.85;;
67308;Laerm;57662;51.436;5.978;2023-07-31T00:02:34;45.19;42.97;51.05;;
67308;Laerm;57662;51.436;5.978;2023-07-31T00:02:45;43.51;41.92;50.01;;
67308;Laerm;57662;51.436;5.978;2023-07-31T00:02:55;43.16;41.63;46.42;;
67308;Laerm;57662;51.436;5.978;2023-07-31T00:03:05;43.82;42.55;44.80;;
67308;Laerm;57662;51.436;5.978;2023-07-31T00:03:16;43.88;42.34;45.22;;
67308;Laerm;57662;51.436;5.978;2023-07-31T00:03:26;44.48;42.04;53.59;;
67308;Laerm;57662;51.436;5.978;2023-07-31T00:03:36;44.79;42.95;52.74;;
67308;Laerm;57662;51.436;5.978;2023-07-31T00:03:46;51.51;42.91;65.83;;
67308;Laerm;57662;51.436;5.978;2023-07-31T00:03:57;47.52;43.94;59.94;;
67308;Laerm;57662;51.436;5.978;2023-07-31T00:04:07;52.61;43.54;66.77;;
67308;Laerm;57662;51.436;5.978;2023-07-31T00:04:17;46.29;43.95;58.22;;
67308;Laerm;57662;51.436;5.978;2023-07-31T00:04:28;56.84;45.72;75.47;;
67308;Laerm;57662;51.436;5.978;2023-07-31T00:04:38;47.85;44.23;54.96;;
67308;Laerm;57662;51.436;5.978;2023-07-31T00:04:48;50.76;43.54;70.64;;
67308;Laerm;57662;51.436;5.978;2023-07-31T00:04:59;53.23;43.54;72.78;;
67308;Laerm;57662;51.436;5.978;2023-07-31T00:05:09;45.34;43.35;51.51;;
67308;Laerm;57662;51.436;5.978;2023-07-31T00:05:20;44.25;42.85;45.76;;
67308;Laerm;57662;51.436;5.978;2023-07-31T00:05:30;44.41;43.11;46.06;;
67308;Laerm;57662;51.436;5.978;2023-07-31T00:05:40;45.17;43.10;51.10;;
67308;Laerm;57662;51.436;5.978;2023-07-31T00:05:50;44.16;42.30;54.36;;
67308;Laerm;57662;51.436;5.978;2023-07-31T00:06:01;45.87;42.44;58.03;;
67308;Laerm;57662;51.436;5.978;2023-07-31T00:06:11;44.98;42.81;54.68;;
67308;Laerm;57662;51.436;5.978;2023-07-31T00:06:21;46.24;42.40;55.24;;
67308;Laerm;57662;51.436;5.978;2023-07-31T00:06:32;44.12;42.69;45.72;;
67308;Laerm;57662;51.436;5.978;2023-07-31T00:06:42;43.70;41.80;46.23;;
67308;Laerm;57662;51.436;5.978;2023-07-31T00:06:52;46.39;40.79;64.09;;
67308;Laerm;57662;51.436;5.978;2023-07-31T00:07:02;42.59;41.06;44.79;;
67308;Laerm;57662;51.436;5.978;2023-07-31T00:07:14;42.28;40.89;43.92;;
67308;Laerm;57662;51.436;5.978;2023-07-31T00:07:24;42.89;41.23;44.82;;
67308;Laerm;57662;51.436;5.978;2023-07-31T00:07:34;43.49;41.74;45.02;;
67308;Laerm;57662;51.436;5.978;2023-07-31T00:07:45;43.78;42.45;45.36;;
67308;Laerm;57662;51.436;5.978;2023-07-31T00:07:55;46.83;43.15;57.71;;
67308;Laerm;57662;51.436;5.978;2023-07-31T00:08:05;44.01;42.07;46.19;;
67308;Laerm;57662;51.436;5.978;2023-07-31T00:08:15;44.12;41.82;47.09;;
67308;Laerm;57662;51.436;5.978;2023-07-31T00:08:26;51.93;44.88;64.60;;
67308;Laerm;57662;51.436;5.978;2023-07-31T00:08:36;54.84;45.43;70.79;;
67308;Laerm;57662;51.436;5.978;2023-07-31T00:08:46;47.08;44.32;56.07;;
67308;Laerm;57662;51.436;5.978;2023-07-31T00:08:56;48.66;44.05;62.76;;
67308;Laerm;57662;51.436;5.978;2023-07-31T00:09:07;44.11;42.60;47.17;;
67308;Laerm;57662;51.436;5.978;2023-07-31T00:09:17;44.48;41.73;54.40;;
67308;Laerm;57662;51.436;5.978;2023-07-31T00:09:27;43.86;41.55;49.16;;
67308;Laerm;57662;51.436;5.978;2023-07-31T00:09:38;45.14;42.28;53.83;;
67308;Laerm;57662;51.436;5.978;2023-07-31T00:09:48;46.01;43.95;60.35;;
67308;Laerm;57662;51.436;5.978;2023-07-31T00:09:58;47.32;43.62;58.66;;
67308;Laerm;57662;51.436;5.978;2023-07-31T00:10:09;51.76;43.82;65.72;;
67308;Laerm;57662;51.436;5.978;2023-07-31T00:10:19;47.36;42.14;60.42;;
67308;Laerm;57662;51.436;5.978;2023-07-31T00:10:29;46.25;42.43;57.43;;
67308;Laerm;57662;51.436;5.978;2023-07-31T00:10:39;46.32;43.34;58.35;;
67308;Laerm;57662;51.436;5.978;2023-07-31T00:10:53;54.09;43.40;67.91;;
67308;Laerm;57662;51.436;5.978;2023-07-31T00:11:03;47.01;44.68;52.56;;
67308;Laerm;57662;51.436;5.978;2023-07-31T00:11:13;49.83;43.74;59.40;;
67308;Laerm;57662;51.436;5.978;2023-07-31T00:11:23;45.59;43.29;52.29;;
67308;Laerm;57662;51.436;5.978;2023-07-31T00:11:34;44.64;42.12;47.28;;
67308;Laerm;57662;51.436;5.978;2023-07-31T00:11:44;45.32;43.50;48.43;;
67308;Laerm;57662;51.436;5.978;2023-07-31T00:11:54;44.13;42.35;46.46;;
67308;Laerm;57662;51.436;5.978;2023-07-31T00:12:05;59.68;43.24;72.48;;
67308;Laerm;57662;51.436;5.978;2023-07-31T00:12:15;56.13;45.69;70.75;;
67308;Laerm;57662;51.436;5.978;2023-07-31T00:12:25;47.20;45.45;49.16;;
67308;Laerm;57662;51.436;5.978;2023-07-31T00:12:37;46.43;44.11;49.30;;
67308;Laerm;57662;51.436;5.978;2023-07-31T00:12:47;45.58;43.61;47.54;;
67308;Laerm;57662;51.436;5.978;2023-07-31T00:12:58;45.40;43.48;48.92;;
67308;Laerm;57662;51.436;5.978;2023-07-31T00:13:08;50.60;44.78;64.78;;
67308;Laerm;57662;51.436;5.978;2023-07-31T00:13:18;52.22;43.51;64.49;;
67308;Laerm;57662;51.436;5.978;2023-07-31T00:13:28;52.79;43.24;66.53;;
67308;Laerm;57662;51.436;5.978;2023-07-31T00:13:39;43.81;42.27;47.96;;
67308;Laerm;57662;51.436;5.978;2023-07-31T00:13:49;45.13;41.95;46.99;;
67308;Laerm;57662;51.436;5.978;2023-07-31T00:13:59;46.12;44.49;49.65;;
67308;Laerm;57662;51.436;5.978;2023-07-31T00:14:09;48.62;46.02;59.53;;
67308;Laerm;57662;51.436;5.978;2023-07-31T00:14:20;53.01;45.84;71.77;;
67308;Laerm;57662;51.436;5.978;2023-07-31T00:14:30;49.80;44.38;60.93;;
67308;Laerm;57662;51.436;5.978;2023-07-31T00:14:43;47.33;44.55;50.19;;
67308;Laerm;57662;51.436;5.978;2023-07-31T00:14:53;50.19;46.20;61.02;;
67308;Laerm;57662;51.436;5.978;2023-07-31T00:15:04;48.93;46.44;58.22;;
67308;Laerm;57662;51.436;5.978;2023-07-31T00:15:14;47.45;44.05;56.58;;
67308;Laerm;57662;51.436;5.978;2023-07-31T00:15:25;46.24;42.68;57.30;;
67308;Laerm;57662;51.436;5.978;2023-07-31T00:15:35;45.60;42.43;55.16;;
67308;Laerm;57662;51.436;5.978;2023-07-31T00:15:45;43.98;42.25;45.55;;
67308;Laerm;57662;51.436;5.978;2023-07-31T00:15:55;43.69;41.99;47.35;;
67308;Laerm;57662;51.436;5.978;2023-07-31T00:16:06;45.79;42.83;49.96;;
67308;Laerm;57662;51.436;5.978;2023-07-31T00:16:16;47.05;43.48;59.16;;
67308;Laerm;57662;51.436;5.978;2023-07-31T00:16:29;48.11;43.93;60.66;;
67308;Laerm;57662;51.436;5.978;2023-07-31T00:16:39;45.57;43.18;49.09;;
67308;Laerm;57662;51.436;5.978;2023-07-31T00:16:49;45.81;44.24;49.76;;
67308;Laerm;57662;51.436;5.978;2023-07-31T00:17:00;48.86;44.90;57.80;;
67308;Laerm;57662;51.436;5.978;2023-07-31T00:17:11;47.89;43.35;59.49;;
67308;Laerm;57662;51.436;5.978;2023-07-31T00:17:21;44.45;42.48;48.06;;
67308;Laerm;57662;51.436;5.978;2023-07-31T00:17:31;45.26;43.74;51.75;;
67308;Laerm;57662;51.436;5.978;2023-07-31T00:17:42;44.21;41.65;48.64;;
67308;Laerm;57662;51.436;5.978;2023-07-31T00:17:52;44.88;42.02;55.06;;
67308;Laerm;57662;51.436;5.978;2023-07-31T00:18:02;45.71;42.07;56.97;;
67308;Laerm;57662;51.436;5.978;2023-07-31T00:18:12;43.36;42.06;44.84;;
67308;Laerm;57662;51.436;5.978;2023-07-31T00:18:23;45.24;42.78;53.29;;
67308;Laerm;57662;51.436;5.978;2023-07-31T00:18:33;44.59;42.80;46.19;;
67308;Laerm;57662;51.436;5.978;2023-07-31T00:18:43;45.73;42.93;55.82;;
67308;Laerm;57662;51.436;5.978;2023-07-31T00:18:53;47.05;43.02;62.42;;
67308;Laerm;57662;51.436;5.978;2023-07-31T00:19:04;48.57;43.98;60.54;;
67308;Laerm;57662;51.436;5.978;2023-07-31T00:19:14;52.42;44.30;64.18;;
67308;Laerm;57662;51.436;5.978;2023-07-31T00:19:24;46.88;44.25;49.52;;
67308;Laerm;57662;51.436;5.978;2023-07-31T00:19:34;50.41;46.36;61.97;;
67308;Laerm;57662;51.436;5.978;2023-07-31T00:19:45;48.37;46.21;55.12;;
67308;Laerm;57662;51.436;5.978;2023-07-31T00:19:56;49.99;46.48;61.65;;
67308;Laerm;57662;51.436;5.978;2023-07-31T00:20:06;50.06;45.11;63.89;;
67308;Laerm;57662;51.436;5.978;2023-07-31T00:20:17;45.74;44.02;47.83;;
67308;Laerm;57662;51.436;5.978;2023-07-31T00:20:27;47.07;43.54;56.59;;
67308;Laerm;57662;51.436;5.978;2023-07-31T00:20:37;47.67;43.31;57.92;;
67308;Laerm;57662;51.436;5.978;2023-07-31T00:20:47;53.94;43.09;68.40;;
67308;Laerm;57662;51.436;5.978;2023-07-31T00:20:57;44.14;42.07;47.48;;
67308;Laerm;57662;51.436;5.978;2023-07-31T00:21:08;45.94;42.86;59.98;;
67308;Laerm;57662;51.436;5.978;2023-07-31T00:21:18;51.06;43.14;68.29;;
67308;Laerm;57662;51.436;5.978;2023-07-31T00:21:28;48.18;43.19;60.65;;
67308;Laerm;57662;51.436;5.978;2023-07-31T00:21:38;48.89;42.13;67.15;;
67308;Laerm;57662;51.436;5.978;2023-07-31T00:21:49;44.71;42.09;51.51;;
67308;Laerm;57662;51.436;5.978;2023-07-31T00:21:59;43.78;41.60;50.84;;
67308;Laerm;57662;51.436;5.978;2023-07-31T00:22:09;43.66;41.90;46.02;;
67308;Laerm;57662;51.436;5.978;2023-07-31T00:22:19;56.96;42.33;76.68;;
67308;Laerm;57662;51.436;5.978;2023-07-31T00:22:30;44.52;42.22;50.27;;
67308;Laerm;57662;51.436;5.978;2023-07-31T00:22:40;48.18;42.07;64.21;;
67308;Laerm;57662;51.436;5.978;2023-07-31T00:22:50;54.87;42.70;72.02;;
67308;Laerm;57662;51.436;5.978;2023-07-31T00:23:00;47.69;42.38;62.50;;
67308;Laerm;57662;51.436;5.978;2023-07-31T00:23:10;48.34;44.25;62.51;;
67308;Laerm;57662;51.436;5.978;2023-07-31T00:23:21;45.95;43.49;54.87;;
67308;Laerm;57662;51.436;5.978;2023-07-31T00:23:31;45.75;43.94;48.58;;
67308;Laerm;57662;51.436;5.978;2023-07-31T00:23:41;48.98;45.17;58.37;;
67308;Laerm;57662;51.436;5.978;2023-07-31T00:23:51;46.49;43.72;53.07;;
67308;Laerm;57662;51.436;5.978;2023-07-31T00:24:02;44.28;42.17;48.39;;
67308;Laerm;57662;51.436;5.978;2023-07-31T00:24:12;45.38;43.64;47.14;;
67308;Laerm;57662;51.436;5.978;2023-07-31T00:24:22;45.16;43.62;48.29;;
67308;Laerm;57662;51.436;5.978;2023-07-31T00:24:32;45.62;43.29;47.72;;
67308;Laerm;57662;51.436;5.978;2023-07-31T00:24:43;45.49;43.95;51.15;;
67308;Laerm;57662;51.436;5.978;2023-07-31T00:24:53;44.59;43.24;46.55;;
67308;Laerm;57662;51.436;5.978;2023-07-31T00:25:03;45.34;43.40;50.43;;
67308;Laerm;57662;51.436;5.978;2023-07-31T00:25:16;43.84;42.17;46.14;;
67308;Laerm;57662;51.436;5.978;2023-07-31T00:25:26;42.50;40.92;44.28;;
67308;Laerm;57662;51.436;5.978;2023-07-31T00:25:36;43.42;41.45;44.87;;
67308;Laerm;57662;51.436;5.978;2023-07-31T00:25:46;43.46;41.65;47.88;;
67308;Laerm;57662;51.436;5.978;2023-07-31T00:25:57;43.54;42.01;45.28;;
67308;Laerm;57662;51.436;5.978;2023-07-31T00:26:07;47.43;42.26;57.70;;
67308;Laerm;57662;51.436;5.978;2023-07-31T00:26:17;46.48;43.02;60.33;;
67308;Laerm;57662;51.436;5.978;2023-07-31T00:26:27;44.80;42.72;54.04;;
67308;Laerm;57662;51.436;5.978;2023-07-31T00:26:38;44.45;42.40;49.80;;
67308;Laerm;57662;51.436;5.978;2023-07-31T00:26:48;44.06;42.45;49.13;;
67308;Laerm;57662;51.436;5.978;2023-07-31T00:26:58;45.29;42.01;53.59;;
67308;Laerm;57662;51.436;5.978;2023-07-31T00:27:09;43.88;42.80;45.19;;
67308;Laerm;57662;51.436;5.978;2023-07-31T00:27:19;46.50;43.02;56.99;;
67308;Laerm;57662;51.436;5.978;2023-07-31T00:27:29;44.31;41.38;51.99;;
67308;Laerm;57662;51.436;5.978;2023-07-31T00:27:40;43.55;41.57;45.30;;
67308;Laerm;57662;51.436;5.978;2023-07-31T00:27:54;44.00;42.21;54.37;;
67308;Laerm;57662;51.436;5.978;2023-07-31T00:28:04;44.39;42.49;55.37;;
67308;Laerm;57662;51.436;5.978;2023-07-31T00:28:14;43.34;41.54;44.79;;
67308;Laerm;57662;51.436;5.978;2023-07-31T00:28:25;46.90;41.98;61.22;;
67308;Laerm;57662;51.436;5.978;2023-07-31T00:28:35;50.32;43.50;65.48;;
67308;Laerm;57662;51.436;5.978;2023-07-31T00:28:45;48.64;44.14;57.90;;
67308;Laerm;57662;51.436;5.978;2023-07-31T00:28:55;46.69;43.29;56.73;;
67308;Laerm;57662;51.436;5.978;2023-07-31T00:29:06;45.24;42.85;52.78;;
67308;Laerm;57662;51.436;5.978;2023-07-31T00:29:16;45.92;42.57;54.18;;
67308;Laerm;57662;51.436;5.978;2023-07-31T00:29:26;55.13;43.56;65.74;;
67308;Laerm;57662;51.436;5.978;2023-07-31T00:29:36;46.69;43.31;57.41;;
67308;Laerm;57662;51.436;5.978;2023-07-31T00:29:46;44.59;43.04;47.97;;
67308;Laerm;57662;51.436;5.978;2023-07-31T00:29:57;50.62;43.99;66.51;;
67308;Laerm;57662;51.436;5.978;2023-07-31T00:30:07;45.58;43.72;49.22;;
67308;Laerm;57662;51.436;5.978;2023-07-31T00:30:17;47.14;43.23;56.34;;
67308;Laerm;57662;51.436;5.978;2023-07-31T00:30:27;45.46;41.61;54.67;;
67308;Laerm;57662;51.436;5.978;2023-07-31T00:30:38;42.92;41.26;44.78;;
67308;Laerm;57662;51.436;5.978;2023-07-31T00:30:48;44.38;42.06;52.81;;
67308;Laerm;57662;51.436;5.978;2023-07-31T00:30:58;43.12;41.70;44.71;;
67308;Laerm;57662;51.436;5.978;2023-07-31T00:31:09;45.64;41.18;56.13;;
67308;Laerm;57662;51.436;5.978;2023-07-31T00:31:19;43.87;41.97;50.32;;
67308;Laerm;57662;51.436;5.978;2023-07-31T00:31:29;45.20;42.36;55.51;;
67308;Laerm;57662;51.436;5.978;2023-07-31T00:31:39;52.28;42.25;64.26;;
67308;Laerm;57662;51.436;5.978;2023-07-31T00:31:50;44.58;42.15;51.23;;
67308;Laerm;57662;51.436;5.978;2023-07-31T00:32:00;45.09;42.90;53.22;;
67308;Laerm;57662;51.436;5.978;2023-07-31T00:32:10;45.25;43.34;46.71;;
67308;Laerm;57662;51.436;5.978;2023-07-31T00:32:20;45.20;42.96;48.67;;
67308;Laerm;57662;51.436;5.978;2023-07-31T00:32:31;48.50;45.72;57.10;;
67308;Laerm;57662;51.436;5.978;2023-07-31T00:32:41;49.51;43.50;65.77;;
67308;Laerm;57662;51.436;5.978;2023-07-31T00:32:51;45.09;43.22;48.26;;
67308;Laerm;57662;51.436;5.978;2023-07-31T00:33:02;48.56;43.66;59.12;;
67308;Laerm;57662;51.436;5.978;2023-07-31T00:33:12;44.05;42.75;46.80;;
67308;Laerm;57662;51.436;5.978;2023-07-31T00:33:22;43.67;42.05;47.70;;
67308;Laerm;57662;51.436;5.978;2023-07-31T00:33:34;43.74;42.32;49.18;;
67308;Laerm;57662;51.436;5.978;2023-07-31T00:33:44;45.65;43.12;49.50;;
67308;Laerm;57662;51.436;5.978;2023-07-31T00:33:55;54.32;48.34;66.82;;
67308;Laerm;57662;51.436;5.978;2023-07-31T00:34:05;45.61;43.22;50.23;;
67308;Laerm;57662;51.436;5.978;2023-07-31T00:34:15;45.38;43.44;48.03;;
67308;Laerm;57662;51.436;5.978;2023-07-31T00:34:26;45.82;44.41;47.33;;
67308;Laerm;57662;51.436;5.978;2023-07-31T00:34:37;46.46;44.31;55.35;;
67308;Laerm;57662;51.436;5.978;2023-07-31T00:34:47;47.43;44.11;56.27;;
67308;Laerm;57662;51.436;5.978;2023-07-31T00:34:57;46.18;43.85;55.10;;
67308;Laerm;57662;51.436;5.978;2023-07-31T00:35:07;46.88;44.68;55.08;;
67308;Laerm;57662;51.436;5.978;2023-07-31T00:35:18;46.50;44.59;52.40;;
67308;Laerm;57662;51.436;5.978;2023-07-31T00:35:28;49.38;44.11;61.93;;
67308;Laerm;57662;51.436;5.978;2023-07-31T00:35:38;43.67;41.66;46.20;;
67308;Laerm;57662;51.436;5.978;2023-07-31T00:35:48;43.60;41.87;46.01;;
67308;Laerm;57662;51.436;5.978;2023-07-31T00:35:59;43.96;42.55;45.94;;
67308;Laerm;57662;51.436;5.978;2023-07-31T00:36:09;43.72;42.04;47.13;;
67308;Laerm;57662;51.436;5.978;2023-07-31T00:36:19;46.18;42.22;58.18;;
67308;Laerm;57662;51.436;5.978;2023-07-31T00:36:30;46.40;42.52;51.66;;
67308;Laerm;57662;51.436;5.978;2023-07-31T00:36:40;47.45;44.93;54.90;;
67308;Laerm;57662;51.436;5.978;2023-07-31T00:36:50;53.30;45.25;63.45;;
67308;Laerm;57662;51.436;5.978;2023-07-31T00:37:00;57.95;46.65;70.66;;
67308;Laerm;57662;51.436;5.978;2023-07-31T00:37:11;47.25;44.41;57.09;;
67308;Laerm;57662;51.436;5.978;2023-07-31T00:37:21;44.65;43.11;45.79;;
67308;Laerm;57662;51.436;5.978;2023-07-31T00:37:31;44.45;42.47;48.73;;
67308;Laerm;57662;51.436;5.978;2023-07-31T00:37:42;44.90;43.38;47.70;;
67308;Laerm;57662;51.436;5.978;2023-07-31T00:37:52;43.58;41.42;45.33;;
67308;Laerm;57662;51.436;5.978;2023-07-31T00:38:02;42.85;41.58;44.28;;
67308;Laerm;57662;51.436;5.978;2023-07-31T00:38:13;43.01;41.71;44.59;;
67308;Laerm;57662;51.436;5.978;2023-07-31T00:38:23;42.78;41.46;44.43;;
67308;Laerm;57662;51.436;5.978;2023-07-31T00:38:33;43.77;41.73;46.08;;
67308;Laerm;57662;51.436;5.978;2023-07-31T00:38:43;55.13;43.77;67.07;;
67308;Laerm;57662;51.436;5.978;2023-07-31T00:38:54;45.71;42.80;54.30;;
67308;Laerm;57662;51.436;5.978;2023-07-31T00:39:04;45.69;43.18;55.94;;
67308;Laerm;57662;51.436;5.978;2023-07-31T00:39:14;45.22;43.44;47.07;;
67308;Laerm;57662;51.436;5.978;2023-07-31T00:39:25;46.61;42.66;60.25;;
67308;Laerm;57662;51.436;5.978;2023-07-31T00:39:35;46.86;42.40;57.91;;
67308;Laerm;57662;51.436;5.978;2023-07-31T00:39:45;46.59;43.96;56.73;;
67308;Laerm;57662;51.436;5.978;2023-07-31T00:39:56;46.32;43.45;51.38;;
67308;Laerm;57662;51.436;5.978;2023-07-31T00:40:06;49.50;44.75;61.96;;
67308;Laerm;57662;51.436;5.978;2023-07-31T00:40:17;47.39;44.22;59.57;;
67308;Laerm;57662;51.436;5.978;2023-07-31T00:40:27;47.19;44.49;55.49;;
67308;Laerm;57662;51.436;5.978;2023-07-31T00:40:38;45.41;43.81;46.82;;
67308;Laerm;57662;51.436;5.978;2023-07-31T00:40:48;44.68;42.70;51.72;;
67308;Laerm;57662;51.436;5.978;2023-07-31T00:40:58;60.55;44.44;71.70;;
67308;Laerm;57662;51.436;5.978;2023-07-31T00:41:08;49.67;43.18;65.51;;
67308;Laerm;57662;51.436;5.978;2023-07-31T00:41:19;51.35;44.65;65.68;;
67308;Laerm;57662;51.436;5.978;2023-07-31T00:41:29;47.46;44.08;58.11;;
67308;Laerm;57662;51.436;5.978;2023-07-31T00:41:39;46.31;44.48;53.72;;
67308;Laerm;57662;51.436;5.978;2023-07-31T00:41:49;45.63;43.53;48.38;;
67308;Laerm;57662;51.436;5.978;2023-07-31T00:42:00;51.65;43.65;62.15;;
67308;Laerm;57662;51.436;5.978;2023-07-31T00:42:10;46.70;42.33;57.73;;
67308;Laerm;57662;51.436;5.978;2023-07-31T00:42:20;44.01;41.84;49.89;;
67308;Laerm;57662;51.436;5.978;2023-07-31T00:42:30;44.09;42.68;48.47;;
67308;Laerm;57662;51.436;5.978;2023-07-31T00:42:41;44.75;42.56;48.45;;
67308;Laerm;57662;51.436;5.978;2023-07-31T00:42:51;45.03;43.13;47.30;;
67308;Laerm;57662;51.436;5.978;2023-07-31T00:43:01;45.38;43.50;47.82;;
67308;Laerm;57662;51.436;5.978;2023-07-31T00:43:11;44.97;42.44;53.72;;
67308;Laerm;57662;51.436;5.978;2023-07-31T00:43:22;43.91;42.26;49.07;;
67308;Laerm;57662;51.436;5.978;2023-07-31T00:43:32;44.78;41.98;55.37;;
67308;Laerm;57662;51.436;5.978;2023-07-31T00:43:43;44.59;42.36;52.34;;
67308;Laerm;57662;51.436;5.978;2023-07-31T00:43:53;44.03;42.17;46.10;;
67308;Laerm;57662;51.436;5.978;2023-07-31T00:44:03;44.57;42.07;48.16;;
67308;Laerm;57662;51.436;5.978;2023-07-31T00:44:13;44.46;42.30;51.83;;
67308;Laerm;57662;51.436;5.978;2023-07-31T00:44:24;44.69;42.60;50.50;;
67308;Laerm;57662;51.436;5.978;2023-07-31T00:44:34;44.33;43.07;46.26;;
67308;Laerm;57662;51.436;5.978;2023-07-31T00:44:44;44.61;42.81;46.56;;
67308;Laerm;57662;51.436;5.978;2023-07-31T00:44:54;42.93;41.31;46.38;;
67308;Laerm;57662;51.436;5.978;2023-07-31T00:45:05;42.79;41.03;44.03;;
67308;Laerm;57662;51.436;5.978;2023-07-31T00:45:15;42.32;40.93;44.25;;
67308;Laerm;57662;51.436;5.978;2023-07-31T00:45:25;43.53;42.41;45.35;;
67308;Laerm;57662;51.436;5.978;2023-07-31T00:45:37;43.77;42.63;45.43;;
67308;Laerm;57662;51.436;5.978;2023-07-31T00:45:47;44.96;42.24;52.66;;
67308;Laerm;57662;51.436;5.978;2023-07-31T00:45:57;45.18;41.31;55.28;;
67308;Laerm;57662;51.436;5.978;2023-07-31T00:46:08;42.21;40.84;48.37;;
67308;Laerm;57662;51.436;5.978;2023-07-31T00:46:18;42.82;40.89;44.78;;
67308;Laerm;57662;51.436;5.978;2023-07-31T00:46:29;43.67;41.82;45.20;;
67308;Laerm;57662;51.436;5.978;2023-07-31T00:46:39;43.82;42.35;45.12;;
67308;Laerm;57662;51.436;5.978;2023-07-31T00:46:50;43.39;41.97;44.74;;
67308;Laerm;57662;51.436;5.978;2023-07-31T00:47:01;43.35;41.99;45.37;;
67308;Laerm;57662;51.436;5.978;2023-07-31T00:47:11;44.83;41.79;54.18;;
67308;Laerm;57662;51.436;5.978;2023-07-31T00:47:22;46.88;41.79;59.11;;
67308;Laerm;57662;51.436;5.978;2023-07-31T00:47:32;43.04;41.55;45.58;;
67308;Laerm;57662;51.436;5.978;2023-07-31T00:47:43;43.47;41.53;48.71;;
67308;Laerm;57662;51.436;5.978;2023-07-31T00:47:53;48.05;43.01;59.15;;
67308;Laerm;57662;51.436;5.978;2023-07-31T00:48:04;47.96;43.61;58.13;;
67308;Laerm;57662;51.436;5.978;2023-07-31T00:48:16;47.25;43.80;59.79;;
67308;Laerm;57662;51.436;5.978;2023-07-31T00:48:26;46.27;42.71;55.53;;
67308;Laerm;57662;51.436;5.978;2023-07-31T00:48:36;44.44;42.33;50.72;;
67308;Laerm;57662;51.436;5.978;2023-07-31T00:48:47;43.32;41.82;47.21;;
67308;Laerm;57662;51.436;5.978;2023-07-31T00:48:58;43.29;41.46;45.24;;
67308;Laerm;57662;51.436;5.978;2023-07-31T00:49:09;45.22;42.92;53.92;;
67308;Laerm;57662;51.436;5.978;2023-07-31T00:49:20;55.70;45.18;67.79;;
67308;Laerm;57662;51.436;5.978;2023-07-31T00:49:31;53.84;46.83;67.48;;
67308;Laerm;57662;51.436;5.978;2023-07-31T00:49:41;48.90;45.66;56.53;;
67308;Laerm;57662;51.436;5.978;2023-07-31T00:49:51;52.20;44.95;67.12;;
67308;Laerm;57662;51.436;5.978;2023-07-31T00:50:02;45.26;42.60;53.92;;
67308;Laerm;57662;51.436;5.978;2023-07-31T00:50:12;49.05;42.38;66.24;;
67308;Laerm;57662;51.436;5.978;2023-07-31T00:50:26;44.77;42.84;47.63;;
67308;Laerm;57662;51.436;5.978;2023-07-31T00:50:37;44.63;42.83;51.76;;
67308;Laerm;57662;51.436;5.978;2023-07-31T00:50:47;44.13;42.52;47.09;;
67308;Laerm;57662;51.436;5.978;2023-07-31T00:50:58;48.74;42.97;61.59;;
67308;Laerm;57662;51.436;5.978;2023-07-31T00:51:08;48.20;44.76;54.17;;
67308;Laerm;57662;51.436;5.978;2023-07-31T00:51:19;58.15;47.53;68.70;;
67308;Laerm;57662;51.436;5.978;2023-07-31T00:51:29;56.03;47.52;68.35;;
67308;Laerm;57662;51.436;5.978;2023-07-31T00:51:39;53.42;48.56;62.42;;
67308;Laerm;57662;51.436;5.978;2023-07-31T00:51:50;47.63;44.79;53.37;;
67308;Laerm;57662;51.436;5.978;2023-07-31T00:52:00;45.67;42.73;56.65;;
67308;Laerm;57662;51.436;5.978;2023-07-31T00:52:10;43.55;42.24;45.66;;
67308;Laerm;57662;51.436;5.978;2023-07-31T00:52:21;42.99;41.72;44.97;;
67308;Laerm;57662;51.436;5.978;2023-07-31T00:52:31;44.30;42.21;46.09;;
67308;Laerm;57662;51.436;5.978;2023-07-31T00:52:42;43.98;42.43;46.46;;
67308;Laerm;57662;51.436;5.978;2023-07-31T00:52:52;44.48;42.35;50.08;;
67308;Laerm;57662;51.436;5.978;2023-07-31T00:53:02;44.78;42.94;52.68;;
67308;Laerm;57662;51.436;5.978;2023-07-31T00:53:13;43.56;41.86;45.34;;
67308;Laerm;57662;51.436;5.978;2023-07-31T00:53:23;44.11;42.63;46.21;;
67308;Laerm;57662;51.436;5.978;2023-07-31T00:53:35;43.88;41.84;47.60;;
67308;Laerm;57662;51.436;5.978;2023-07-31T00:53:45;54.10;43.17;67.75;;
67308;Laerm;57662;51.436;5.978;2023-07-31T00:53:56;48.96;44.11;61.45;;
67308;Laerm;57662;51.436;5.978;2023-07-31T00:54:07;47.62;44.43;58.72;;
67308;Laerm;57662;51.436;5.978;2023-07-31T00:54:18;46.74;44.82;51.76;;
67308;Laerm;57662;51.436;5.978;2023-07-31T00:54:28;48.10;44.88;60.87;;
67308;Laerm;57662;51.436;5.978;2023-07-31T00:54:39;46.76;44.06;56.79;;
67308;Laerm;57662;51.436;5.978;2023-07-31T00:54:49;44.90;43.23;50.03;;
67308;Laerm;57662;51.436;5.978;2023-07-31T00:55:00;44.92;42.71;51.37;;
67308;Laerm;57662;51.436;5.978;2023-07-31T00:55:10;45.05;43.49;51.69;;
67308;Laerm;57662;51.436;5.978;2023-07-31T00:55:21;47.38;43.67;58.09;;
67308;Laerm;57662;51.436;5.978;2023-07-31T00:55:31;52.38;44.94;67.11;;
67308;Laerm;57662;51.436;5.978;2023-07-31T00:55:42;45.68;43.97;53.89;;
67308;Laerm;57662;51.436;5.978;2023-07-31T00:55:53;45.67;44.08;48.31;;
67308;Laerm;57662;51.436;5.978;2023-07-31T00:56:03;45.17;43.43;47.04;;
67308;Laerm;57662;51.436;5.978;2023-07-31T00:56:14;43.58;41.50;45.45;;
67308;Laerm;57662;51.436;5.978;2023-07-31T00:56:25;43.28;41.73;44.77;;
67308;Laerm;57662;51.436;5.978;2023-07-31T00:56:36;44.87;42.63;46.86;;
67308;Laerm;57662;51.436;5.978;2023-07-31T00:56:46;45.14;42.97;51.23;;
67308;Laerm;57662;51.436;5.978;2023-07-31T00:56:58;44.03;42.17;49.19;;
67308;Laerm;57662;51.436;5.978;2023-07-31T00:57:09;43.47;41.87;45.58;;
67308;Laerm;57662;51.436;5.978;2023-07-31T00:57:20;46.49;42.34;54.68;;
67308;Laerm;57662;51.436;5.978;2023-07-31T00:57:30;46.71;43.35;54.39;;
67308;Laerm;57662;51.436;5.978;2023-07-31T00:57:42;45.19;43.31;53.25;;
67308;Laerm;57662;51.436;5.978;2023-07-31T00:57:52;45.30;43.24;54.55;;
67308;Laerm;57662;51.436;5.978;2023-07-31T00:58:05;44.40;41.98;56.01;;
67308;Laerm;57662;51.436;5.978;2023-07-31T00:58:15;43.93;41.93;47.68;;